createdAt,value
2024-02-24T00:01:51.878Z,92391.13
2024-02-24T00:04:18.545Z,92392.53
2024-02-24T00:06:45.134Z,92389.28
2024-02-24T00:09:11.698Z,92395.47
2024-02-24T00:11:39.805Z,92399.03
2024-02-24T00:14:06.664Z,92405.19
2024-02-24T00:16:33.392Z,92402.22
2024-02-24T00:19:00.283Z,92399.16
2024-02-24T00:21:27.250Z,92389.69
2024-02-24T00:23:53.903Z,92398.38
2024-02-24T00:26:20.536Z,92400.56
2024-02-24T00:28:48.430Z,92405.34
2024-02-24T00:31:14.995Z,92406.09
2024-02-24T00:33:42.429Z,92397.56
2024-02-24T00:36:09.620Z,92391.69
2024-02-24T00:38:36.493Z,92392.13
2024-02-24T00:41:03.223Z,92393.03
2024-02-24T00:43:29.956Z,92387.63
2024-02-24T00:45:57.986Z,92394.63
2024-02-24T00:48:24.966Z,92400.19
2024-02-24T00:50:51.542Z,92400.94
2024-02-24T00:53:18.164Z,92401.25
2024-02-24T00:55:44.744Z,92402.00
2024-02-24T00:58:11.403Z,92400.28
2024-02-24T01:00:38.074Z,92399.00
2024-02-24T01:03:06.149Z,92404.53
2024-02-24T01:05:32.935Z,92405.72
2024-02-24T01:07:59.520Z,92405.84
2024-02-24T01:10:26.370Z,92413.84
2024-02-24T01:12:53.253Z,92411.84
2024-02-24T01:15:20.101Z,92411.66
2024-02-24T01:17:46.823Z,92405.78
2024-02-24T01:20:15.140Z,92401.31
2024-02-24T01:22:41.725Z,92407.97
2024-02-24T01:25:08.616Z,92403.28
2024-02-24T01:27:35.224Z,92409.31
2024-02-24T01:30:01.915Z,92414.41
2024-02-24T01:32:28.684Z,92414.22
2024-02-24T01:34:55.338Z,92419.34
2024-02-24T01:37:23.393Z,92419.91
2024-02-24T01:39:50.109Z,92422.84
2024-02-24T01:42:16.770Z,92421.00
2024-02-24T01:44:43.590Z,92417.94
2024-02-24T01:47:10.494Z,92413.91
2024-02-24T01:49:39.583Z,92426.00
2024-02-24T01:52:07.113Z,92425.56
2024-02-24T01:54:37.022Z,92423.25
2024-02-24T01:57:05.068Z,92429.22
2024-02-24T01:59:33.045Z,92437.06
2024-02-24T02:01:59.702Z,92435.16
2024-02-24T02:04:26.797Z,92437.91
2024-02-24T02:06:53.542Z,92435.38
2024-02-24T02:09:20.114Z,92439.38
2024-02-24T02:11:56.502Z,92442.47
2024-02-24T02:14:29.857Z,92441.53
2024-02-24T02:16:56.457Z,92434.72
2024-02-24T02:19:23.131Z,92436.16
2024-02-24T02:21:51.839Z,92446.94
2024-02-24T02:24:19.846Z,92445.91
2024-02-24T02:26:46.541Z,92444.06
2024-02-24T02:29:15.883Z,92438.47
2024-02-24T02:31:42.480Z,92431.81
2024-02-24T02:34:09.189Z,92434.13
2024-02-24T02:36:36.290Z,92436.50
2024-02-24T02:39:03.378Z,92433.25
2024-02-24T02:41:31.531Z,92437.16
2024-02-24T02:43:58.155Z,92441.94
2024-02-24T02:46:24.680Z,92445.22
2024-02-24T02:48:51.476Z,92442.47
2024-02-24T02:51:18.114Z,92436.44
2024-02-24T02:53:45.577Z,92434.75
2024-02-24T02:56:13.368Z,92432.91
2024-02-24T02:58:44.457Z,92436.00
2024-02-24T03:01:11.185Z,92426.56
2024-02-24T03:03:37.918Z,92425.78
2024-02-24T03:06:05.160Z,92424.53
2024-02-24T03:08:31.925Z,92424.69
2024-02-24T03:10:58.662Z,92421.22
2024-02-24T03:13:25.400Z,92424.59
2024-02-24T03:15:53.354Z,92418.97
2024-02-24T03:18:20.089Z,92414.16
2024-02-24T03:20:46.785Z,92409.94
2024-02-24T03:23:14.907Z,92418.72
2024-02-24T03:25:41.507Z,92409.56
2024-02-24T03:28:08.075Z,92418.19
2024-02-24T03:30:34.644Z,92408.09
2024-02-24T03:33:02.704Z,92417.19
2024-02-24T03:35:29.362Z,92424.41
2024-02-24T03:37:55.940Z,92422.50
2024-02-24T03:40:22.555Z,92418.91
2024-02-24T03:42:49.129Z,92429.53
2024-02-24T03:45:16.578Z,92438.19
2024-02-24T03:47:43.406Z,92436.44
2024-02-24T03:50:11.639Z,92439.38
2024-02-24T03:52:38.345Z,92442.47
2024-02-24T03:55:05.498Z,92434.59
2024-02-24T03:57:32.140Z,92449.91
2024-02-24T03:59:58.869Z,92455.13
2024-02-24T04:02:25.571Z,92457.22
2024-02-24T04:04:52.229Z,92455.94
2024-02-24T04:07:20.121Z,92448.84
2024-02-24T04:09:46.707Z,92453.38
2024-02-24T04:12:13.699Z,92451.41
2024-02-24T04:14:40.336Z,92457.50
2024-02-24T04:17:07.213Z,92458.19
2024-02-24T04:19:33.811Z,92467.94
2024-02-24T04:22:00.388Z,92466.56
2024-02-24T04:24:28.591Z,92470.91
2024-02-24T04:26:58.031Z,92467.38
2024-02-24T04:29:24.651Z,92463.97
2024-02-24T04:31:51.256Z,92474.50
2024-02-24T04:34:18.042Z,92469.97
2024-02-24T04:36:44.617Z,92471.28
2024-02-24T04:39:11.211Z,92471.91
2024-02-24T04:41:39.270Z,92474.47
2024-02-24T04:44:05.972Z,92481.06
2024-02-24T04:46:32.532Z,92472.03
2024-02-24T04:48:59.171Z,92479.44
2024-02-24T04:51:25.812Z,92478.66
2024-02-24T04:53:52.445Z,92490.41
2024-02-24T04:56:19.151Z,92481.00
2024-02-24T04:58:47.200Z,92492.28
2024-02-24T05:01:13.849Z,92490.72
2024-02-24T05:03:40.474Z,92505.59
2024-02-24T05:06:07.305Z,92509.78
2024-02-24T05:08:34.023Z,92512.09
2024-02-24T05:11:00.617Z,92518.63
2024-02-24T05:13:27.384Z,92523.28
2024-02-24T05:15:55.330Z,92508.44
2024-02-24T05:18:22.024Z,92513.69
2024-02-24T05:20:48.741Z,92524.69
2024-02-24T05:23:15.462Z,92523.34
2024-02-24T05:25:42.113Z,92518.09
2024-02-24T05:28:08.730Z,92523.63
2024-02-24T05:30:35.406Z,92532.34
2024-02-24T05:33:04.120Z,92528.16
2024-02-24T05:35:30.788Z,92525.53
2024-02-24T05:37:57.370Z,92526.31
2024-02-24T05:40:24.022Z,92528.75
2024-02-24T05:42:50.660Z,92541.72
2024-02-24T05:45:17.571Z,92547.03
2024-02-24T05:47:44.320Z,92560.53
2024-02-24T05:50:12.826Z,92563.94
2024-02-24T05:52:39.641Z,92564.13
2024-02-24T05:55:08.573Z,92565.38
2024-02-24T05:57:35.484Z,92568.59
2024-02-24T06:00:03.250Z,92570.63
2024-02-24T06:02:29.928Z,92565.84
2024-02-24T06:04:56.792Z,92574.84
2024-02-24T06:07:24.731Z,92570.72
2024-02-24T06:09:51.299Z,92586.03
2024-02-24T06:12:18.150Z,92592.72
2024-02-24T06:14:44.935Z,92595.53
2024-02-24T06:17:11.554Z,92604.56
2024-02-24T06:19:38.194Z,92604.69
2024-02-24T06:22:04.792Z,92612.94
2024-02-24T06:24:32.734Z,92618.38
2024-02-24T06:26:59.450Z,92621.06
2024-02-24T06:29:26.080Z,92618.00
2024-02-24T06:31:52.778Z,92621.59
2024-02-24T06:34:19.609Z,92627.19
2024-02-24T06:36:46.242Z,92632.78
2024-02-24T06:39:12.901Z,92644.47
2024-02-24T06:41:41.124Z,92646.47
2024-02-24T06:44:07.896Z,92652.69
2024-02-24T06:46:34.529Z,92657.81
2024-02-24T06:49:01.464Z,92665.88
2024-02-24T06:51:28.165Z,92669.47
2024-02-24T06:53:54.885Z,92658.81
2024-02-24T06:56:22.260Z,92669.97
2024-02-24T06:58:50.814Z,92659.94
2024-02-24T07:01:21.756Z,92658.84
2024-02-24T07:03:48.609Z,92662.16
2024-02-24T07:06:15.372Z,92667.16
2024-02-24T07:08:42.094Z,92661.59
2024-02-24T07:11:08.919Z,92659.72
2024-02-24T07:13:35.557Z,92671.50
2024-02-24T07:16:03.821Z,92675.72
2024-02-24T07:18:30.699Z,92674.00
2024-02-24T07:20:58.442Z,92684.72
2024-02-24T07:23:26.081Z,92694.66
2024-02-24T07:25:52.821Z,92695.41
2024-02-24T07:28:22.446Z,92713.13
2024-02-24T07:30:49.424Z,92721.22
2024-02-24T07:33:17.599Z,92720.44
2024-02-24T07:35:44.308Z,92725.72
2024-02-24T07:38:12.076Z,92708.44
2024-02-24T07:40:38.842Z,92712.19
2024-02-24T07:43:05.513Z,92723.38
2024-02-24T07:45:32.133Z,92722.44
2024-02-24T07:48:18.066Z,92725.56
2024-02-24T07:50:44.928Z,92738.91
2024-02-24T07:53:29.491Z,92736.84
2024-02-24T07:55:56.451Z,92733.25
2024-02-24T07:58:31.783Z,92738.19
2024-02-24T08:00:58.794Z,92742.16
2024-02-24T08:03:26.851Z,92735.94
2024-02-24T08:05:53.499Z,92735.91
2024-02-24T08:08:22.105Z,92744.81
2024-02-24T08:10:48.908Z,92734.59
2024-02-24T08:13:15.477Z,92751.00
2024-02-24T08:15:42.821Z,92744.22
2024-02-24T08:18:10.757Z,92762.16
2024-02-24T08:20:38.829Z,92771.50
2024-02-24T08:23:05.419Z,92748.44
2024-02-24T08:25:31.974Z,92744.16
2024-02-24T08:27:58.637Z,92749.22
2024-02-24T08:30:25.321Z,92753.91
2024-02-24T08:32:52.208Z,92757.56
2024-02-24T08:35:19.308Z,92761.97
2024-02-24T08:37:47.375Z,92757.50
2024-02-24T08:40:14.405Z,92757.31
2024-02-24T08:42:41.223Z,92764.13
2024-02-24T08:45:08.123Z,92767.88
2024-02-24T08:47:38.222Z,92754.97
2024-02-24T08:50:06.260Z,92768.72
2024-02-24T08:52:38.717Z,92777.28
2024-02-24T08:55:14.279Z,92777.84
2024-02-24T08:57:40.972Z,92780.84
2024-02-24T09:00:08.918Z,92789.78
2024-02-24T09:02:35.498Z,92790.53
2024-02-24T09:05:02.105Z,92795.09
2024-02-24T09:07:28.798Z,92795.78
2024-02-24T09:09:56.334Z,92796.22
2024-02-24T09:12:25.315Z,92797.75
2024-02-24T09:14:51.985Z,92796.44
2024-02-24T09:17:18.654Z,92796.44
2024-02-24T09:19:46.189Z,92788.09
2024-02-24T09:22:13.447Z,92791.13
2024-02-24T09:24:40.306Z,92795.31
2024-02-24T09:27:11.853Z,92800.88
2024-02-24T09:29:39.937Z,92792.88
2024-02-24T09:32:22.607Z,92782.16
2024-02-24T09:34:49.742Z,92799.19
2024-02-24T09:37:21.321Z,92808.72
2024-02-24T09:39:49.337Z,92800.75
2024-02-24T09:42:15.923Z,92794.97
2024-02-24T09:45:13.988Z,92797.00
2024-02-24T09:47:41.852Z,92797.28
2024-02-24T09:50:09.640Z,92797.13
2024-02-24T09:52:36.364Z,92804.84
2024-02-24T09:55:04.526Z,92808.78
2024-02-24T09:57:38.202Z,92807.38
2024-02-24T10:00:07.618Z,92804.84
2024-02-24T10:02:34.512Z,92817.13
2024-02-24T10:05:03.715Z,92815.78
2024-02-24T10:07:32.660Z,92827.75
2024-02-24T10:09:59.326Z,92825.00
2024-02-24T10:12:26.022Z,92839.53
2024-02-24T10:14:54.818Z,92848.66
2024-02-24T10:17:23.052Z,92838.94
2024-02-24T10:19:53.679Z,92843.53
2024-02-24T10:22:20.355Z,92834.78
2024-02-24T10:24:47.073Z,92835.41
2024-02-24T10:27:16.890Z,92834.63
2024-02-24T10:29:51.313Z,92835.09
2024-02-24T10:32:19.450Z,92827.28
2024-02-24T10:34:48.610Z,92827.69
2024-02-24T10:37:16.821Z,92825.50
2024-02-24T10:39:50.436Z,92828.44
2024-02-24T10:42:18.198Z,92830.44
2024-02-24T10:44:45.464Z,92833.69
2024-02-24T10:47:14.692Z,92839.19
2024-02-24T10:49:44.121Z,92837.47
2024-02-24T10:52:15.178Z,92841.28
2024-02-24T10:54:45.856Z,92845.00
2024-02-24T10:57:15.410Z,92841.06
2024-02-24T10:59:44.496Z,92845.72
2024-02-24T11:02:15.601Z,92845.59
2024-02-24T11:04:44.613Z,92852.41
2024-02-24T11:07:18.777Z,92852.00
2024-02-24T11:09:48.525Z,92863.09
2024-02-24T11:12:15.681Z,92860.34
2024-02-24T11:14:44.056Z,92852.84
2024-02-24T11:17:11.713Z,92855.53
2024-02-24T11:19:45.738Z,92855.28
2024-02-24T11:22:20.873Z,92848.50
2024-02-24T11:25:02.788Z,92850.59
2024-02-24T11:27:30.091Z,92853.19
2024-02-24T11:30:08.805Z,92851.97
2024-02-24T11:32:38.407Z,92845.50
2024-02-24T11:35:05.814Z,92829.31
2024-02-24T11:37:42.850Z,92828.63
2024-02-24T11:40:12.769Z,92831.78
2024-02-24T11:42:40.514Z,92823.78
2024-02-24T11:45:09.355Z,92830.25
2024-02-24T11:47:36.059Z,92825.97
2024-02-24T11:50:02.897Z,92825.22
2024-02-24T11:52:29.821Z,92830.94
2024-02-24T11:54:57.892Z,92839.75
2024-02-24T11:57:25.402Z,92839.78
2024-02-24T11:59:52.366Z,92841.66
2024-02-24T12:02:19.119Z,92838.66
2024-02-24T12:04:46.082Z,92849.66
2024-02-24T12:07:13.059Z,92847.09
2024-02-24T12:09:40.288Z,92851.69
2024-02-24T12:12:08.900Z,92844.09
2024-02-24T12:14:36.293Z,92837.97
2024-02-24T12:17:02.983Z,92845.91
2024-02-24T12:19:34.014Z,92844.88
2024-02-24T12:22:00.795Z,92841.63
2024-02-24T12:24:28.734Z,92836.88
2024-02-24T12:26:59.758Z,92835.63
2024-02-24T12:29:28.792Z,92844.31
2024-02-24T12:31:59.100Z,92838.22
2024-02-24T12:34:26.467Z,92836.00
2024-02-24T12:36:56.667Z,92840.19
2024-02-24T12:39:23.687Z,92833.50
2024-02-24T12:41:51.067Z,92829.91
2024-02-24T12:44:18.012Z,92833.34
2024-02-24T12:46:46.558Z,92851.13
2024-02-24T12:49:13.404Z,92844.38
2024-02-24T12:51:51.304Z,92849.84
2024-02-24T12:54:20.400Z,92848.47
2024-02-24T12:56:47.075Z,92842.38
2024-02-24T12:59:13.896Z,92846.53
2024-02-24T13:01:40.870Z,92848.13
2024-02-24T13:04:09.006Z,92852.13
2024-02-24T13:06:35.927Z,92853.66
2024-02-24T13:09:02.783Z,92851.06
2024-02-24T13:11:29.614Z,92848.38
2024-02-24T13:13:56.307Z,92855.59
2024-02-24T13:16:23.264Z,92853.00
2024-02-24T13:18:50.320Z,92851.69
2024-02-24T13:21:18.554Z,92868.88
2024-02-24T13:23:48.172Z,92865.66
2024-02-24T13:26:15.015Z,92864.31
2024-02-24T13:28:42.045Z,92872.25
2024-02-24T13:31:08.694Z,92861.91
2024-02-24T13:33:35.967Z,92871.56
2024-02-24T13:36:03.260Z,92861.44
2024-02-24T13:38:31.659Z,92857.91
2024-02-24T13:41:01.262Z,92871.19
2024-02-24T13:43:28.105Z,92879.38
2024-02-24T13:45:55.305Z,92866.53
2024-02-24T13:48:22.312Z,92874.28
2024-02-24T13:50:49.180Z,92869.50
2024-02-24T13:53:15.924Z,92867.94
2024-02-24T13:55:44.077Z,92873.59
2024-02-24T13:58:11.741Z,92871.25
2024-02-24T14:00:38.974Z,92870.13
2024-02-24T14:03:05.811Z,92876.97
2024-02-24T14:05:32.801Z,92880.13
2024-02-24T14:08:00.333Z,92876.03
2024-02-24T14:10:26.961Z,92881.34
2024-02-24T14:12:55.056Z,92878.72
2024-02-24T14:15:21.717Z,92874.06
2024-02-24T14:17:48.627Z,92873.56
2024-02-24T14:20:23.000Z,92873.16
2024-02-24T14:22:57.230Z,92865.31
2024-02-24T14:25:23.959Z,92873.16
2024-02-24T14:27:51.404Z,92881.16
2024-02-24T14:30:19.781Z,92879.91
2024-02-24T14:32:46.555Z,92877.06
2024-02-24T14:35:14.601Z,92882.13
2024-02-24T14:37:41.665Z,92877.50
2024-02-24T14:40:09.221Z,92874.91
2024-02-24T14:42:36.712Z,92876.91
2024-02-24T14:45:04.114Z,92883.44
2024-02-24T14:47:33.113Z,92881.94
2024-02-24T14:50:00.015Z,92876.69
2024-02-24T14:52:26.637Z,92870.69
2024-02-24T14:54:53.474Z,92877.59
2024-02-24T14:57:20.429Z,92874.75
2024-02-24T14:59:50.527Z,92881.66
2024-02-24T15:02:29.977Z,92876.16
2024-02-24T15:05:06.250Z,92890.03
2024-02-24T15:07:32.930Z,92887.28
2024-02-24T15:09:59.723Z,92888.56
2024-02-24T15:12:26.776Z,92890.28
2024-02-24T15:14:53.503Z,92916.69
2024-02-24T15:17:20.273Z,92959.69
2024-02-24T15:19:47.002Z,92985.31
2024-02-24T15:22:17.547Z,93005.75
2024-02-24T15:24:46.831Z,93018.88
2024-02-24T15:27:13.774Z,93028.72
2024-02-24T15:29:40.555Z,93041.41
2024-02-24T15:32:07.683Z,93015.72
2024-02-24T15:34:34.662Z,93014.84
2024-02-24T15:37:01.360Z,93022.88
2024-02-24T15:39:29.670Z,93012.66
2024-02-24T15:41:56.486Z,93013.00
2024-02-24T15:44:23.348Z,93008.00
2024-02-24T15:46:49.934Z,93005.06
2024-02-24T15:49:16.783Z,93009.56
2024-02-24T15:51:43.494Z,93015.34
2024-02-24T15:54:10.299Z,93012.66
2024-02-24T15:56:38.554Z,93003.97
2024-02-24T15:59:05.376Z,93010.44
2024-02-24T16:01:32.222Z,93016.06
2024-02-24T16:03:59.135Z,93014.78
2024-02-24T16:06:26.060Z,93019.06
2024-02-24T16:08:52.911Z,93016.09
2024-02-24T16:11:19.752Z,93011.16
2024-02-24T16:13:48.110Z,93010.59
2024-02-24T16:16:15.041Z,93019.59
2024-02-24T16:18:42.044Z,93019.88
2024-02-24T16:21:10.683Z,93012.94
2024-02-24T16:23:37.607Z,93018.34
2024-02-24T16:26:04.703Z,93026.00
2024-02-24T16:28:31.553Z,93030.88
2024-02-24T16:30:59.793Z,93031.22
2024-02-24T16:33:26.944Z,93027.63
2024-02-24T16:35:53.727Z,93031.25
2024-02-24T16:38:20.417Z,93036.00
2024-02-24T16:40:47.271Z,93031.31
2024-02-24T16:43:13.861Z,93031.06
2024-02-24T16:45:40.636Z,93039.03
2024-02-24T16:48:09.469Z,93052.47
2024-02-24T16:50:36.268Z,93043.75
2024-02-24T16:53:03.128Z,93044.88
2024-02-24T16:55:29.808Z,93054.22
2024-02-24T16:57:56.619Z,93058.59
2024-02-24T17:00:27.389Z,93061.13
2024-02-24T17:03:13.236Z,93072.34
2024-02-24T17:05:40.646Z,93065.31
2024-02-24T17:08:07.688Z,93064.53
2024-02-24T17:10:34.239Z,93072.63
2024-02-24T17:13:01.112Z,93076.53
2024-02-24T17:15:27.748Z,93074.63
2024-02-24T17:17:54.586Z,93083.84
2024-02-24T17:20:22.657Z,93091.31
2024-02-24T17:22:49.285Z,93088.66
2024-02-24T17:25:16.101Z,93091.78
2024-02-24T17:27:45.902Z,93089.28
2024-02-24T17:30:14.738Z,93095.81
2024-02-24T17:32:41.299Z,93100.00
2024-02-24T17:35:08.491Z,93095.03
2024-02-24T17:37:36.384Z,93094.59
2024-02-24T17:40:03.157Z,93097.81
2024-02-24T17:42:29.692Z,93100.94
2024-02-24T17:44:56.271Z,93101.72
2024-02-24T17:47:22.992Z,93113.41
2024-02-24T17:49:49.655Z,93100.31
2024-02-24T17:52:16.485Z,93106.50
2024-02-24T17:54:44.487Z,93114.44
2024-02-24T17:57:11.125Z,93120.84
2024-02-24T17:59:37.726Z,93120.34
2024-02-24T18:02:04.504Z,93118.81
2024-02-24T18:04:31.310Z,93116.91
2024-02-24T18:06:58.073Z,93123.00
2024-02-24T18:09:24.707Z,93121.78
2024-02-24T18:11:52.751Z,93132.38
2024-02-24T18:14:19.416Z,93133.91
2024-02-24T18:16:46.042Z,93125.50
2024-02-24T18:19:12.755Z,93132.97
2024-02-24T18:21:39.382Z,93131.69
2024-02-24T18:24:06.460Z,93146.59
2024-02-24T18:26:33.075Z,93138.34
2024-02-24T18:29:03.387Z,93132.72
2024-02-24T18:31:30.163Z,93129.13
2024-02-24T18:33:57.192Z,93129.13
2024-02-24T18:36:24.123Z,93127.72
2024-02-24T18:38:50.669Z,93131.44
2024-02-24T18:41:17.535Z,93120.41
2024-02-24T18:43:44.621Z,93125.69
2024-02-24T18:46:13.142Z,93119.44
2024-02-24T18:48:39.975Z,93116.63
2024-02-24T18:51:06.940Z,93115.38
2024-02-24T18:56:59.957Z,93113.03
2024-02-24T18:59:30.608Z,93114.41
2024-02-24T19:01:58.940Z,93116.31
2024-02-24T19:04:28.438Z,93110.84
2024-02-24T19:06:55.159Z,93108.47
2024-02-24T19:09:21.885Z,93109.97
2024-02-24T19:11:48.758Z,93117.06
2024-02-24T19:14:15.414Z,93115.94
2024-02-24T19:16:42.101Z,93116.66
2024-02-24T19:19:10.176Z,93125.97
2024-02-24T19:21:39.900Z,93133.78
2024-02-24T19:24:08.495Z,93130.59
2024-02-24T19:26:36.259Z,93132.44
2024-02-24T19:29:02.872Z,93129.13
2024-02-24T19:31:29.506Z,93136.13
2024-02-24T19:33:56.600Z,93126.75
2024-02-24T19:36:24.916Z,93133.06
2024-02-24T19:38:58.038Z,93133.25
2024-02-24T19:41:28.827Z,93136.66
2024-02-24T19:43:58.633Z,93138.47
2024-02-24T19:46:25.390Z,93142.50
2024-02-24T19:48:52.161Z,93148.41
2024-02-24T19:51:19.009Z,93148.97
2024-02-24T19:53:47.088Z,93144.34
2024-02-24T19:56:13.901Z,93151.06
2024-02-24T19:58:47.831Z,93154.50
2024-02-24T20:01:21.317Z,93154.00
2024-02-24T20:03:47.978Z,93149.97
2024-02-24T20:06:14.770Z,93149.50
2024-02-24T20:08:44.746Z,93153.69
2024-02-24T20:11:12.938Z,93156.53
2024-02-24T20:13:39.784Z,93155.91
2024-02-24T20:16:09.252Z,93156.41
2024-02-24T20:18:36.155Z,93158.25
2024-02-24T20:21:03.190Z,93159.16
2024-02-24T20:23:30.001Z,93157.94
2024-02-24T20:25:57.040Z,93145.53
2024-02-24T20:28:25.287Z,93156.41
2024-02-24T20:30:52.015Z,93159.53
2024-02-24T20:33:19.010Z,93160.09
2024-02-24T20:35:45.988Z,93164.63
2024-02-24T20:38:12.871Z,93159.34
2024-02-24T20:40:39.611Z,93165.50
2024-02-24T20:43:06.498Z,93159.28
2024-02-24T20:45:34.652Z,93172.19
2024-02-24T20:48:01.531Z,93172.38
2024-02-24T20:50:28.289Z,93173.91
2024-02-24T20:52:57.491Z,93173.50
2024-02-24T20:55:24.798Z,93173.97
2024-02-24T20:57:51.596Z,93178.19
2024-02-24T21:00:19.002Z,93182.81
2024-02-24T21:02:47.309Z,93171.75
2024-02-24T21:05:14.419Z,93178.88
2024-02-24T21:07:43.574Z,93181.19
2024-02-24T21:13:34.661Z,93186.28
2024-02-24T21:16:01.360Z,93174.28
2024-02-24T21:18:30.976Z,93183.41
2024-02-24T21:20:57.804Z,93179.50
2024-02-24T21:23:24.536Z,93176.22
2024-02-24T21:25:51.321Z,93180.50
2024-02-24T21:28:18.268Z,93180.13
2024-02-24T21:30:45.868Z,93180.41
2024-02-24T21:33:13.145Z,93181.56
2024-02-24T21:35:41.736Z,93187.13
2024-02-24T21:38:08.553Z,93185.28
2024-02-24T21:40:35.248Z,93189.09
2024-02-24T21:43:04.870Z,93191.75
2024-02-24T21:45:33.608Z,93192.56
2024-02-24T21:48:03.248Z,93187.59
2024-02-24T21:50:30.365Z,93185.00
2024-02-24T21:52:59.942Z,93179.03
2024-02-24T21:55:26.866Z,93182.34
2024-02-24T21:57:54.046Z,93178.53
2024-02-24T22:00:23.086Z,93176.38
2024-02-24T22:02:49.952Z,93179.91
2024-02-24T22:05:16.876Z,93181.25
2024-02-24T22:07:45.780Z,93182.34
2024-02-24T22:10:13.967Z,93174.63
2024-02-24T22:12:40.638Z,93176.09
2024-02-24T22:15:24.451Z,93182.47
2024-02-24T22:17:51.782Z,93171.03
2024-02-24T22:20:18.733Z,93172.88
2024-02-24T22:22:47.922Z,93169.19
2024-02-24T22:25:16.492Z,93170.13
2024-02-24T22:27:44.272Z,93164.28
2024-02-24T22:30:16.305Z,93171.31
2024-02-24T22:32:47.354Z,93166.34
2024-02-24T22:35:17.345Z,93170.44
2024-02-24T22:37:48.990Z,93169.53
2024-02-24T22:40:22.610Z,93171.31
2024-02-24T22:42:49.540Z,93173.16
2024-02-24T22:45:18.857Z,93174.91
2024-02-24T22:48:01.265Z,93179.13
2024-02-24T22:50:34.483Z,93175.88
2024-02-24T22:53:07.442Z,93182.09
2024-02-24T22:55:35.754Z,93176.72
2024-02-24T22:58:02.897Z,93176.72
2024-02-24T23:00:33.260Z,93182.50
2024-02-24T23:03:02.100Z,93171.25
2024-02-24T23:05:34.459Z,93173.72
2024-02-24T23:08:01.504Z,93170.72
2024-02-24T23:10:33.922Z,93166.03
2024-02-24T23:27:09.613Z,93165.34
2024-02-24T23:29:39.553Z,93161.06
2024-02-24T23:32:10.958Z,93159.41
2024-02-24T23:34:38.015Z,93156.78
2024-02-24T23:37:05.125Z,93160.38
2024-02-24T23:39:32.072Z,93156.88
2024-02-24T23:41:59.496Z,93163.72
2024-02-24T23:44:26.629Z,93157.66
2024-02-24T23:46:55.615Z,93159.22
2024-02-24T23:49:26.906Z,93163.31
2024-02-24T23:52:01.166Z,93157.84
2024-02-24T23:54:30.788Z,93167.59
2024-02-24T23:56:57.945Z,93174.06
2024-02-24T23:59:26.614Z,93174.25
